sensor_id;sensor_type;location;lat;lon;timestamp;pressure;altitude;pressure_sealevel;temperature;humidity
43480;BME280;29067;35.492;-97.520;2023-03-15T00:01:05;97933.66;;;8.58;33.04
43480;BME280;29067;35.492;-97.520;2023-03-15T00:03:34;97925.75;;;9.07;32.81
43480;BME280;29067;35.492;-97.520;2023-03-15T00:06:02;97923.36;;;8.64;32.79
43480;BME280;29067;35.492;-97.520;2023-03-15T00:08:31;97926.09;;;7.73;34.07
43480;BME280;29067;35.492;-97.520;2023-03-15T00:11:00;97932.86;;;7.81;34.24
43480;BME280;29067;35.492;-97.520;2023-03-15T00:13:28;97926.54;;;7.77;34.49
43480;BME280;29067;35.492;-97.520;2023-03-15T00:15:58;97916.97;;;7.89;34.30
43480;BME280;29067;35.492;-97.520;2023-03-15T00:18:26;97902.09;;;8.36;34.12
43480;BME280;29067;35.492;-97.520;2023-03-15T00:20:55;97895.69;;;9.10;33.66
43480;BME280;29067;35.492;-97.520;2023-03-15T00:23:28;97894.94;;;9.08;33.77
43480;BME280;29067;35.492;-97.520;2023-03-15T00:26:01;97891.63;;;9.88;33.37
43480;BME280;29067;35.492;-97.520;2023-03-15T00:28:29;97894.50;;;8.08;34.95
43480;BME280;29067;35.492;-97.520;2023-03-15T00:31:19;97892.10;;;8.23;34.77
43480;BME280;29067;35.492;-97.520;2023-03-15T00:33:48;97896.47;;;9.00;34.63
43480;BME280;29067;35.492;-97.520;2023-03-15T00:36:17;97898.26;;;9.00;34.18
43480;BME280;29067;35.492;-97.520;2023-03-15T00:38:50;97904.47;;;7.29;35.93
43480;BME280;29067;35.492;-97.520;2023-03-15T00:41:20;97907.29;;;8.28;35.25
43480;BME280;29067;35.492;-97.520;2023-03-15T00:43:49;97903.60;;;6.30;37.23
43480;BME280;29067;35.492;-97.520;2023-03-15T00:46:24;97903.07;;;7.23;37.12
43480;BME280;29067;35.492;-97.520;2023-03-15T00:48:52;97899.87;;;6.25;37.99
43480;BME280;29067;35.492;-97.520;2023-03-15T00:51:22;97895.58;;;6.25;37.56
43480;BME280;29067;35.492;-97.520;2023-03-15T00:53:52;97898.20;;;7.50;37.08
43480;BME280;29067;35.492;-97.520;2023-03-15T00:56:22;97902.75;;;8.34;36.45
43480;BME280;29067;35.492;-97.520;2023-03-15T00:58:50;97913.46;;;6.66;37.41
43480;BME280;29067;35.492;-97.520;2023-03-15T01:01:20;97918.02;;;7.66;36.62
43480;BME280;29067;35.492;-97.520;2023-03-15T01:03:49;97925.13;;;8.41;35.72
43480;BME280;29067;35.492;-97.520;2023-03-15T01:06:20;97935.71;;;7.93;35.91
43480;BME280;29067;35.492;-97.520;2023-03-15T01:08:55;97935.50;;;6.59;37.33
43480;BME280;29067;35.492;-97.520;2023-03-15T01:11:25;97943.32;;;6.38;37.97
43480;BME280;29067;35.492;-97.520;2023-03-15T01:13:56;97948.73;;;6.80;37.70
43480;BME280;29067;35.492;-97.520;2023-03-15T01:16:25;97948.81;;;6.88;37.61
43480;BME280;29067;35.492;-97.520;2023-03-15T01:18:53;97955.70;;;7.15;37.40
43480;BME280;29067;35.492;-97.520;2023-03-15T01:21:22;97957.21;;;7.28;37.88
43480;BME280;29067;35.492;-97.520;2023-03-15T01:23:51;97960.56;;;6.04;38.67
43480;BME280;29067;35.492;-97.520;2023-03-15T01:26:19;97957.15;;;6.03;38.52
43480;BME280;29067;35.492;-97.520;2023-03-15T01:28:47;97946.56;;;6.85;38.00
43480;BME280;29067;35.492;-97.520;2023-03-15T01:31:19;97946.45;;;5.73;38.94
43480;BME280;29067;35.492;-97.520;2023-03-15T01:33:48;97944.40;;;5.48;39.30
43480;BME280;29067;35.492;-97.520;2023-03-15T01:36:17;97939.30;;;7.03;38.04
43480;BME280;29067;35.492;-97.520;2023-03-15T01:38:45;97944.45;;;6.91;38.10
43480;BME280;29067;35.492;-97.520;2023-03-15T01:41:15;97947.23;;;6.34;38.41
43480;BME280;29067;35.492;-97.520;2023-03-15T01:43:44;97943.29;;;6.62;37.82
43480;BME280;29067;35.492;-97.520;2023-03-15T01:46:20;97938.02;;;6.18;37.77
43480;BME280;29067;35.492;-97.520;2023-03-15T01:48:52;97940.15;;;7.11;36.77
43480;BME280;29067;35.492;-97.520;2023-03-15T01:51:23;97952.37;;;6.15;38.37
43480;BME280;29067;35.492;-97.520;2023-03-15T01:53:56;97957.60;;;4.77;39.50
43480;BME280;29067;35.492;-97.520;2023-03-15T01:56:33;97951.39;;;5.88;38.65
43480;BME280;29067;35.492;-97.520;2023-03-15T01:59:05;97947.83;;;6.48;39.05
43480;BME280;29067;35.492;-97.520;2023-03-15T02:01:36;97953.04;;;5.02;39.35
43480;BME280;29067;35.492;-97.520;2023-03-15T02:04:08;97953.26;;;5.72;39.34
43480;BME280;29067;35.492;-97.520;2023-03-15T02:06:39;97953.55;;;6.85;38.23
43480;BME280;29067;35.492;-97.520;2023-03-15T02:09:09;97958.43;;;5.34;39.22
43480;BME280;29067;35.492;-97.520;2023-03-15T02:11:37;97956.96;;;5.80;38.98
43480;BME280;29067;35.492;-97.520;2023-03-15T02:14:05;97957.71;;;4.59;40.18
43480;BME280;29067;35.492;-97.520;2023-03-15T02:16:35;97954.13;;;4.41;40.46
43480;BME280;29067;35.492;-97.520;2023-03-15T02:19:06;97952.05;;;4.98;39.76
43480;BME280;29067;35.492;-97.520;2023-03-15T02:21:43;97956.62;;;5.38;39.22
43480;BME280;29067;35.492;-97.520;2023-03-15T02:24:27;97963.98;;;5.50;39.12
43480;BME280;29067;35.492;-97.520;2023-03-15T02:27:00;97966.48;;;5.44;39.66
43480;BME280;29067;35.492;-97.520;2023-03-15T02:29:28;97958.11;;;5.03;39.60
43480;BME280;29067;35.492;-97.520;2023-03-15T02:31:57;97951.59;;;5.89;38.94
43480;BME280;29067;35.492;-97.520;2023-03-15T02:34:32;97963.02;;;5.07;39.42
43480;BME280;29067;35.492;-97.520;2023-03-15T02:37:00;97959.31;;;5.38;39.33
43480;BME280;29067;35.492;-97.520;2023-03-15T02:39:28;97954.23;;;6.23;38.61
43480;BME280;29067;35.492;-97.520;2023-03-15T02:42:14;97956.22;;;6.18;38.50
43480;BME280;29067;35.492;-97.520;2023-03-15T02:44:45;97961.13;;;4.33;40.64
43480;BME280;29067;35.492;-97.520;2023-03-15T02:47:19;97953.76;;;5.91;39.15
43480;BME280;29067;35.492;-97.520;2023-03-15T02:49:50;97963.16;;;5.46;39.24
43480;BME280;29067;35.492;-97.520;2023-03-15T02:52:19;97967.94;;;5.26;40.58
43480;BME280;29067;35.492;-97.520;2023-03-15T02:54:47;97978.21;;;4.48;41.18
43480;BME280;29067;35.492;-97.520;2023-03-15T02:57:17;97973.24;;;5.04;40.58
43480;BME280;29067;35.492;-97.520;2023-03-15T02:59:45;97975.68;;;5.09;40.63
43480;BME280;29067;35.492;-97.520;2023-03-15T03:02:14;97973.87;;;5.38;40.67
43480;BME280;29067;35.492;-97.520;2023-03-15T03:04:42;97977.92;;;3.47;42.30
43480;BME280;29067;35.492;-97.520;2023-03-15T03:07:10;97970.74;;;4.59;41.12
43480;BME280;29067;35.492;-97.520;2023-03-15T03:09:38;97971.79;;;4.90;40.90
43480;BME280;29067;35.492;-97.520;2023-03-15T03:12:06;97974.18;;;3.47;42.55
43480;BME280;29067;35.492;-97.520;2023-03-15T03:14:34;97977.90;;;4.89;41.94
43480;BME280;29067;35.492;-97.520;2023-03-15T03:17:03;97983.57;;;4.66;42.18
43480;BME280;29067;35.492;-97.520;2023-03-15T03:19:31;97984.40;;;4.26;42.70
43480;BME280;29067;35.492;-97.520;2023-03-15T03:21:59;97985.25;;;2.93;43.66
43480;BME280;29067;35.492;-97.520;2023-03-15T03:24:27;97981.55;;;3.44;43.60
43480;BME280;29067;35.492;-97.520;2023-03-15T03:26:55;97978.58;;;4.06;43.17
43480;BME280;29067;35.492;-97.520;2023-03-15T03:29:23;97978.40;;;4.33;42.63
43480;BME280;29067;35.492;-97.520;2023-03-15T03:31:51;97979.47;;;3.92;43.24
43480;BME280;29067;35.492;-97.520;2023-03-15T03:34:19;97974.07;;;5.16;41.42
43480;BME280;29067;35.492;-97.520;2023-03-15T03:36:48;97983.06;;;5.20;41.45
43480;BME280;29067;35.492;-97.520;2023-03-15T03:39:16;97992.92;;;3.86;42.33
43480;BME280;29067;35.492;-97.520;2023-03-15T03:41:44;97988.61;;;3.64;43.29
43480;BME280;29067;35.492;-97.520;2023-03-15T03:44:13;97986.27;;;3.55;43.28
43480;BME280;29067;35.492;-97.520;2023-03-15T03:46:42;97983.98;;;2.63;44.87
43480;BME280;29067;35.492;-97.520;2023-03-15T03:49:10;97976.67;;;3.05;44.95
43480;BME280;29067;35.492;-97.520;2023-03-15T03:51:38;97981.85;;;3.59;43.99
43480;BME280;29067;35.492;-97.520;2023-03-15T03:54:06;97972.19;;;3.17;44.66
43480;BME280;29067;35.492;-97.520;2023-03-15T03:56:33;97973.14;;;3.33;44.26
43480;BME280;29067;35.492;-97.520;2023-03-15T03:59:01;97976.24;;;3.64;44.14
43480;BME280;29067;35.492;-97.520;2023-03-15T04:01:35;97981.72;;;3.68;44.39
43480;BME280;29067;35.492;-97.520;2023-03-15T04:04:05;97980.79;;;3.18;44.93
43480;BME280;29067;35.492;-97.520;2023-03-15T04:06:34;97977.86;;;4.00;43.92
43480;BME280;29067;35.492;-97.520;2023-03-15T04:09:02;97985.07;;;2.93;44.89
43480;BME280;29067;35.492;-97.520;2023-03-15T04:11:30;97978.67;;;3.05;45.51
43480;BME280;29067;35.492;-97.520;2023-03-15T04:13:58;97981.73;;;2.29;46.93
43480;BME280;29067;35.492;-97.520;2023-03-15T04:16:26;97980.20;;;3.14;46.43
43480;BME280;29067;35.492;-97.520;2023-03-15T04:18:53;97979.59;;;3.35;45.46
43480;BME280;29067;35.492;-97.520;2023-03-15T04:21:21;97979.40;;;3.05;45.68
43480;BME280;29067;35.492;-97.520;2023-03-15T04:23:50;97978.25;;;2.39;46.90
43480;BME280;29067;35.492;-97.520;2023-03-15T04:26:18;97979.35;;;2.73;45.71
43480;BME280;29067;35.492;-97.520;2023-03-15T04:28:46;97981.07;;;3.48;45.63
43480;BME280;29067;35.492;-97.520;2023-03-15T04:31:15;97984.61;;;3.21;46.49
43480;BME280;29067;35.492;-97.520;2023-03-15T04:33:42;97987.46;;;1.32;48.50
43480;BME280;29067;35.492;-97.520;2023-03-15T04:36:11;97984.27;;;3.10;46.70
43480;BME280;29067;35.492;-97.520;2023-03-15T04:38:39;97980.02;;;2.66;46.90
43480;BME280;29067;35.492;-97.520;2023-03-15T04:41:07;97983.97;;;3.63;47.22
43480;BME280;29067;35.492;-97.520;2023-03-15T04:43:35;97986.53;;;2.41;47.52
43480;BME280;29067;35.492;-97.520;2023-03-15T04:46:05;97978.38;;;3.28;46.89
43480;BME280;29067;35.492;-97.520;2023-03-15T04:48:33;97980.04;;;3.59;46.05
43480;BME280;29067;35.492;-97.520;2023-03-15T04:51:01;97977.01;;;2.19;47.62
43480;BME280;29067;35.492;-97.520;2023-03-15T04:53:29;97969.66;;;1.82;48.54
43480;BME280;29067;35.492;-97.520;2023-03-15T04:55:57;97966.64;;;1.64;49.35
43480;BME280;29067;35.492;-97.520;2023-03-15T04:58:25;97963.55;;;2.51;48.02
43480;BME280;29067;35.492;-97.520;2023-03-15T05:00:54;97964.97;;;2.99;47.58
43480;BME280;29067;35.492;-97.520;2023-03-15T05:03:21;97962.05;;;2.50;48.04
43480;BME280;29067;35.492;-97.520;2023-03-15T05:05:50;97970.12;;;1.67;49.17
43480;BME280;29067;35.492;-97.520;2023-03-15T05:08:18;97973.80;;;3.48;47.41
43480;BME280;29067;35.492;-97.520;2023-03-15T05:10:46;97975.38;;;3.05;47.33
43480;BME280;29067;35.492;-97.520;2023-03-15T05:13:14;97971.14;;;2.75;47.56
43480;BME280;29067;35.492;-97.520;2023-03-15T05:15:43;97971.75;;;2.07;48.86
43480;BME280;29067;35.492;-97.520;2023-03-15T05:18:11;97960.41;;;2.12;49.03
43480;BME280;29067;35.492;-97.520;2023-03-15T05:20:39;97961.20;;;3.42;47.83
43480;BME280;29067;35.492;-97.520;2023-03-15T05:23:08;97957.34;;;3.16;47.72
43480;BME280;29067;35.492;-97.520;2023-03-15T05:25:36;97954.97;;;2.18;48.68
43480;BME280;29067;35.492;-97.520;2023-03-15T05:28:04;97954.29;;;2.22;48.18
43480;BME280;29067;35.492;-97.520;2023-03-15T05:30:32;97945.30;;;3.26;46.85
43480;BME280;29067;35.492;-97.520;2023-03-15T05:33:00;97938.67;;;3.98;46.09
43480;BME280;29067;35.492;-97.520;2023-03-15T05:35:28;97940.88;;;2.71;48.99
43480;BME280;29067;35.492;-97.520;2023-03-15T05:37:56;97939.81;;;2.30;49.61
43480;BME280;29067;35.492;-97.520;2023-03-15T05:40:24;97940.39;;;1.70;50.50
43480;BME280;29067;35.492;-97.520;2023-03-15T05:42:52;97941.92;;;1.06;51.83
43480;BME280;29067;35.492;-97.520;2023-03-15T05:45:20;97934.33;;;2.68;49.67
43480;BME280;29067;35.492;-97.520;2023-03-15T05:47:48;97929.20;;;2.18;50.83
43480;BME280;29067;35.492;-97.520;2023-03-15T05:50:17;97923.71;;;2.42;49.89
43480;BME280;29067;35.492;-97.520;2023-03-15T05:52:45;97924.78;;;2.06;50.56
43480;BME280;29067;35.492;-97.520;2023-03-15T05:55:13;97924.12;;;3.57;48.57
43480;BME280;29067;35.492;-97.520;2023-03-15T05:57:40;97917.48;;;2.01;50.88
43480;BME280;29067;35.492;-97.520;2023-03-15T06:00:10;97910.35;;;2.47;50.14
43480;BME280;29067;35.492;-97.520;2023-03-15T06:02:38;97916.24;;;2.23;51.16
43480;BME280;29067;35.492;-97.520;2023-03-15T06:05:06;97917.43;;;2.65;51.21
43480;BME280;29067;35.492;-97.520;2023-03-15T06:07:34;97908.54;;;1.54;51.93
43480;BME280;29067;35.492;-97.520;2023-03-15T06:10:03;97908.39;;;1.98;51.02
43480;BME280;29067;35.492;-97.520;2023-03-15T06:12:31;97904.12;;;2.49;51.98
43480;BME280;29067;35.492;-97.520;2023-03-15T06:14:59;97912.75;;;2.44;52.39
43480;BME280;29067;35.492;-97.520;2023-03-15T06:17:27;97918.89;;;1.79;52.69
43480;BME280;29067;35.492;-97.520;2023-03-15T06:19:56;97918.35;;;1.57;52.96
43480;BME280;29067;35.492;-97.520;2023-03-15T06:22:24;97919.56;;;2.20;53.23
43480;BME280;29067;35.492;-97.520;2023-03-15T06:24:52;97917.21;;;2.75;51.33
43480;BME280;29067;35.492;-97.520;2023-03-15T06:27:19;97919.91;;;2.01;51.44
43480;BME280;29067;35.492;-97.520;2023-03-15T06:29:47;97918.79;;;3.10;50.09
43480;BME280;29067;35.492;-97.520;2023-03-15T06:32:15;97921.26;;;2.86;49.29
43480;BME280;29067;35.492;-97.520;2023-03-15T06:34:43;97920.82;;;2.49;50.74
43480;BME280;29067;35.492;-97.520;2023-03-15T06:37:11;97923.60;;;3.10;49.51
43480;BME280;29067;35.492;-97.520;2023-03-15T06:39:39;97926.94;;;2.11;50.91
43480;BME280;29067;35.492;-97.520;2023-03-15T06:42:07;97928.37;;;3.59;49.81
43480;BME280;29067;35.492;-97.520;2023-03-15T06:44:36;97924.25;;;3.14;49.70
43480;BME280;29067;35.492;-97.520;2023-03-15T06:47:04;97921.58;;;3.49;49.02
43480;BME280;29067;35.492;-97.520;2023-03-15T06:49:33;97920.50;;;2.40;49.33
43480;BME280;29067;35.492;-97.520;2023-03-15T06:52:02;97915.69;;;3.34;48.40
43480;BME280;29067;35.492;-97.520;2023-03-15T06:54:31;97910.40;;;4.43;46.81
43480;BME280;29067;35.492;-97.520;2023-03-15T06:56:59;97912.10;;;3.08;48.59
43480;BME280;29067;35.492;-97.520;2023-03-15T06:59:27;97909.79;;;3.16;47.88
43480;BME280;29067;35.492;-97.520;2023-03-15T07:01:55;97903.97;;;2.90;48.29
43480;BME280;29067;35.492;-97.520;2023-03-15T07:04:23;97901.20;;;4.15;46.68
43480;BME280;29067;35.492;-97.520;2023-03-15T07:06:51;97896.36;;;3.28;47.83
43480;BME280;29067;35.492;-97.520;2023-03-15T07:09:19;97893.25;;;2.42;49.69
43480;BME280;29067;35.492;-97.520;2023-03-15T07:11:47;97893.65;;;1.89;50.27
43480;BME280;29067;35.492;-97.520;2023-03-15T07:14:16;97886.77;;;2.33;49.36
43480;BME280;29067;35.492;-97.520;2023-03-15T07:16:44;97883.74;;;2.82;49.47
43480;BME280;29067;35.492;-97.520;2023-03-15T07:19:14;97886.95;;;2.40;49.54
43480;BME280;29067;35.492;-97.520;2023-03-15T07:21:42;97882.60;;;2.73;49.82
43480;BME280;29067;35.492;-97.520;2023-03-15T07:24:10;97877.77;;;1.66;50.64
43480;BME280;29067;35.492;-97.520;2023-03-15T07:26:38;97874.50;;;2.35;50.15
43480;BME280;29067;35.492;-97.520;2023-03-15T07:29:06;97878.94;;;1.75;51.15
43480;BME280;29067;35.492;-97.520;2023-03-15T07:31:34;97878.88;;;2.06;50.95
43480;BME280;29067;35.492;-97.520;2023-03-15T07:34:02;97886.21;;;1.71;51.38
43480;BME280;29067;35.492;-97.520;2023-03-15T07:36:30;97887.33;;;1.98;50.81
43480;BME280;29067;35.492;-97.520;2023-03-15T07:38:58;97881.46;;;1.90;51.50
43480;BME280;29067;35.492;-97.520;2023-03-15T07:41:26;97872.45;;;2.61;50.59
43480;BME280;29067;35.492;-97.520;2023-03-15T07:43:54;97869.50;;;2.37;50.30
43480;BME280;29067;35.492;-97.520;2023-03-15T07:46:27;97869.87;;;2.92;48.76
43480;BME280;29067;35.492;-97.520;2023-03-15T07:48:55;97864.43;;;2.46;49.73
43480;BME280;29067;35.492;-97.520;2023-03-15T07:51:24;97864.76;;;1.70;51.11
43480;BME280;29067;35.492;-97.520;2023-03-15T07:53:52;97862.47;;;2.77;49.82
43480;BME280;29067;35.492;-97.520;2023-03-15T07:56:20;97863.44;;;3.52;48.08
43480;BME280;29067;35.492;-97.520;2023-03-15T07:58:48;97853.69;;;1.96;49.68
43480;BME280;29067;35.492;-97.520;2023-03-15T08:01:16;97854.95;;;2.32;49.56
43480;BME280;29067;35.492;-97.520;2023-03-15T08:03:44;97859.39;;;2.06;49.76
43480;BME280;29067;35.492;-97.520;2023-03-15T08:06:12;97854.19;;;1.55;50.22
43480;BME280;29067;35.492;-97.520;2023-03-15T08:08:40;97852.86;;;3.11;48.71
43480;BME280;29067;35.492;-97.520;2023-03-15T08:11:08;97850.97;;;3.00;48.31
43480;BME280;29067;35.492;-97.520;2023-03-15T08:13:36;97852.60;;;2.40;48.83
43480;BME280;29067;35.492;-97.520;2023-03-15T08:16:04;97843.84;;;2.94;48.36
43480;BME280;29067;35.492;-97.520;2023-03-15T08:18:33;97839.08;;;1.96;50.01
43480;BME280;29067;35.492;-97.520;2023-03-15T08:21:01;97839.63;;;2.92;48.60
43480;BME280;29067;35.492;-97.520;2023-03-15T08:23:29;97829.64;;;2.87;49.02
43480;BME280;29067;35.492;-97.520;2023-03-15T08:25:57;97829.49;;;2.27;49.93
43480;BME280;29067;35.492;-97.520;2023-03-15T08:28:25;97822.42;;;2.11;49.98
43480;BME280;29067;35.492;-97.520;2023-03-15T08:30:53;97818.72;;;1.84;49.93
43480;BME280;29067;35.492;-97.520;2023-03-15T08:33:21;97812.15;;;3.14;48.86
43480;BME280;29067;35.492;-97.520;2023-03-15T08:35:52;97813.58;;;1.92;50.39
43480;BME280;29067;35.492;-97.520;2023-03-15T08:38:20;97813.68;;;2.08;49.71
43480;BME280;29067;35.492;-97.520;2023-03-15T08:40:48;97812.38;;;2.23;50.11
43480;BME280;29067;35.492;-97.520;2023-03-15T08:43:16;97809.99;;;2.07;50.02
43480;BME280;29067;35.492;-97.520;2023-03-15T08:45:44;97805.46;;;1.51;50.73
43480;BME280;29067;35.492;-97.520;2023-03-15T08:48:12;97806.14;;;2.05;50.20
43480;BME280;29067;35.492;-97.520;2023-03-15T08:50:40;97804.83;;;1.88;50.25
43480;BME280;29067;35.492;-97.520;2023-03-15T08:53:10;97807.36;;;2.37;49.90
43480;BME280;29067;35.492;-97.520;2023-03-15T08:55:38;97802.72;;;2.47;49.70
43480;BME280;29067;35.492;-97.520;2023-03-15T08:58:06;97799.08;;;2.08;50.31
43480;BME280;29067;35.492;-97.520;2023-03-15T09:00:34;97802.05;;;2.23;49.61
43480;BME280;29067;35.492;-97.520;2023-03-15T09:03:02;97795.10;;;1.62;50.67
43480;BME280;29067;35.492;-97.520;2023-03-15T09:05:31;97803.10;;;1.00;52.27
43480;BME280;29067;35.492;-97.520;2023-03-15T09:07:59;97794.20;;;1.37;52.59
43480;BME280;29067;35.492;-97.520;2023-03-15T09:10:27;97792.76;;;1.90;52.04
43480;BME280;29067;35.492;-97.520;2023-03-15T09:12:55;97786.64;;;2.33;50.70
43480;BME280;29067;35.492;-97.520;2023-03-15T09:15:23;97783.49;;;3.56;48.45
43480;BME280;29067;35.492;-97.520;2023-03-15T09:17:51;97782.20;;;2.75;48.68
43480;BME280;29067;35.492;-97.520;2023-03-15T09:20:19;97775.62;;;2.36;49.89
43480;BME280;29067;35.492;-97.520;2023-03-15T09:22:51;97778.65;;;1.27;51.08
43480;BME280;29067;35.492;-97.520;2023-03-15T09:25:21;97783.75;;;1.99;50.26
43480;BME280;29067;35.492;-97.520;2023-03-15T09:27:51;97779.28;;;1.90;50.60
43480;BME280;29067;35.492;-97.520;2023-03-15T09:30:19;97770.20;;;2.79;49.39
43480;BME280;29067;35.492;-97.520;2023-03-15T09:32:47;97766.28;;;1.99;50.48
43480;BME280;29067;35.492;-97.520;2023-03-15T09:35:17;97764.06;;;1.91;50.21
43480;BME280;29067;35.492;-97.520;2023-03-15T09:37:46;97769.61;;;1.45;50.85
43480;BME280;29067;35.492;-97.520;2023-03-15T09:40:18;97764.12;;;3.30;48.55
43480;BME280;29067;35.492;-97.520;2023-03-15T09:42:56;97760.99;;;3.29;48.49
43480;BME280;29067;35.492;-97.520;2023-03-15T09:45:30;97753.14;;;2.82;48.71
43480;BME280;29067;35.492;-97.520;2023-03-15T09:48:10;97756.63;;;1.86;50.12
43480;BME280;29067;35.492;-97.520;2023-03-15T09:50:44;97755.64;;;3.08;48.49
43480;BME280;29067;35.492;-97.520;2023-03-15T09:53:17;97745.11;;;3.41;48.09
43480;BME280;29067;35.492;-97.520;2023-03-15T09:55:48;97732.15;;;3.99;46.91
43480;BME280;29067;35.492;-97.520;2023-03-15T09:58:20;97736.28;;;2.73;49.17
43480;BME280;29067;35.492;-97.520;2023-03-15T10:00:52;97730.51;;;2.72;49.30
43480;BME280;29067;35.492;-97.520;2023-03-15T10:03:25;97727.99;;;4.13;47.29
43480;BME280;29067;35.492;-97.520;2023-03-15T10:05:59;97733.27;;;1.75;51.03
43480;BME280;29067;35.492;-97.520;2023-03-15T10:08:29;97730.60;;;1.23;51.41
43480;BME280;29067;35.492;-97.520;2023-03-15T10:11:07;97725.90;;;2.74;49.91
43480;BME280;29067;35.492;-97.520;2023-03-15T10:13:54;97725.40;;;2.60;49.41
43480;BME280;29067;35.492;-97.520;2023-03-15T10:16:39;97725.02;;;1.71;50.54
43480;BME280;29067;35.492;-97.520;2023-03-15T10:19:17;97721.13;;;1.83;50.61
43480;BME280;29067;35.492;-97.520;2023-03-15T10:21:54;97715.97;;;2.21;49.63
43480;BME280;29067;35.492;-97.520;2023-03-15T10:24:33;97713.02;;;1.49;51.44
43480;BME280;29067;35.492;-97.520;2023-03-15T10:27:14;97705.98;;;1.54;51.97
43480;BME280;29067;35.492;-97.520;2023-03-15T10:29:48;97697.89;;;1.25;52.66
43480;BME280;29067;35.492;-97.520;2023-03-15T10:32:19;97694.29;;;1.07;52.83
43480;BME280;29067;35.492;-97.520;2023-03-15T10:34:51;97695.91;;;1.06;52.98
43480;BME280;29067;35.492;-97.520;2023-03-15T10:37:19;97696.14;;;1.19;53.04
43480;BME280;29067;35.492;-97.520;2023-03-15T10:39:50;97697.94;;;1.35;51.84
43480;BME280;29067;35.492;-97.520;2023-03-15T10:42:26;97697.80;;;1.69;52.34
43480;BME280;29067;35.492;-97.520;2023-03-15T10:44:54;97699.58;;;2.04;51.59
43480;BME280;29067;35.492;-97.520;2023-03-15T10:47:25;97700.04;;;1.44;51.15
43480;BME280;29067;35.492;-97.520;2023-03-15T10:49:57;97700.81;;;1.30;51.25
43480;BME280;29067;35.492;-97.520;2023-03-15T10:52:30;97695.84;;;1.55;52.40
43480;BME280;29067;35.492;-97.520;2023-03-15T10:55:02;97693.75;;;1.47;52.69
43480;BME280;29067;35.492;-97.520;2023-03-15T10:57:36;97692.59;;;0.88;52.66
43480;BME280;29067;35.492;-97.520;2023-03-15T11:00:26;97685.99;;;1.53;52.57
43480;BME280;29067;35.492;-97.520;2023-03-15T11:03:02;97677.20;;;1.69;52.97
43480;BME280;29067;35.492;-97.520;2023-03-15T11:05:37;97674.12;;;0.96;53.81
43480;BME280;29067;35.492;-97.520;2023-03-15T11:08:12;97672.29;;;1.84;53.11
43480;BME280;29067;35.492;-97.520;2023-03-15T11:10:40;97669.56;;;1.60;53.35
43480;BME280;29067;35.492;-97.520;2023-03-15T11:13:16;97666.21;;;0.43;55.41
43480;BME280;29067;35.492;-97.520;2023-03-15T11:15:53;97669.76;;;1.79;53.56
43480;BME280;29067;35.492;-97.520;2023-03-15T11:18:27;97659.19;;;1.70;52.87
43480;BME280;29067;35.492;-97.520;2023-03-15T11:20:56;97661.12;;;1.10;54.93
43480;BME280;29067;35.492;-97.520;2023-03-15T11:23:27;97666.70;;;2.09;53.52
43480;BME280;29067;35.492;-97.520;2023-03-15T11:25:57;97661.28;;;0.62;55.61
43480;BME280;29067;35.492;-97.520;2023-03-15T11:28:27;97667.87;;;0.71;56.41
43480;BME280;29067;35.492;-97.520;2023-03-15T11:30:57;97672.76;;;1.56;55.42
43480;BME280;29067;35.492;-97.520;2023-03-15T11:33:35;97666.51;;;0.59;56.11
43480;BME280;29067;35.492;-97.520;2023-03-15T11:36:10;97669.45;;;0.50;58.23
43480;BME280;29067;35.492;-97.520;2023-03-15T11:38:41;97668.33;;;0.40;58.69
43480;BME280;29067;35.492;-97.520;2023-03-15T11:41:21;97662.17;;;1.23;56.94
43480;BME280;29067;35.492;-97.520;2023-03-15T11:43:56;97662.34;;;1.47;56.30
43480;BME280;29067;35.492;-97.520;2023-03-15T11:46:38;97662.97;;;2.11;55.01
43480;BME280;29067;35.492;-97.520;2023-03-15T11:49:14;97672.47;;;1.53;55.30
43480;BME280;29067;35.492;-97.520;2023-03-15T11:51:55;97666.71;;;1.23;55.84
43480;BME280;29067;35.492;-97.520;2023-03-15T11:54:27;97673.37;;;1.31;55.98
43480;BME280;29067;35.492;-97.520;2023-03-15T11:57:02;97666.07;;;1.19;56.22
43480;BME280;29067;35.492;-97.520;2023-03-15T11:59:38;97664.78;;;1.44;55.34
43480;BME280;29067;35.492;-97.520;2023-03-15T12:03:24;97656.71;;;1.85;53.57
43480;BME280;29067;35.492;-97.520;2023-03-15T12:05:59;97650.32;;;0.56;57.18
43480;BME280;29067;35.492;-97.520;2023-03-15T12:08:43;97644.81;;;-0.09;59.66
43480;BME280;29067;35.492;-97.520;2023-03-15T12:11:13;97638.81;;;0.64;58.71
43480;BME280;29067;35.492;-97.520;2023-03-15T12:14:05;97646.25;;;0.60;60.32
43480;BME280;29067;35.492;-97.520;2023-03-15T12:16:40;97637.00;;;1.30;59.17
43480;BME280;29067;35.492;-97.520;2023-03-15T12:19:13;97642.87;;;0.29;59.81
43480;BME280;29067;35.492;-97.520;2023-03-15T12:21:45;97635.66;;;1.28;59.20
43480;BME280;29067;35.492;-97.520;2023-03-15T12:24:19;97652.56;;;0.85;60.07
43480;BME280;29067;35.492;-97.520;2023-03-15T12:26:51;97657.28;;;0.06;60.01
43480;BME280;29067;35.492;-97.520;2023-03-15T12:29:26;97660.55;;;0.97;59.23
43480;BME280;29067;35.492;-97.520;2023-03-15T12:31:58;97663.63;;;0.64;59.94
43480;BME280;29067;35.492;-97.520;2023-03-15T12:34:42;97663.71;;;1.25;59.04
43480;BME280;29067;35.492;-97.520;2023-03-15T12:37:16;97662.01;;;1.10;58.70
43480;BME280;29067;35.492;-97.520;2023-03-15T12:39:48;97655.76;;;1.19;57.80
43480;BME280;29067;35.492;-97.520;2023-03-15T12:43:38;97660.05;;;1.74;57.96
43480;BME280;29067;35.492;-97.520;2023-03-15T12:46:06;97656.45;;;0.67;59.81
43480;BME280;29067;35.492;-97.520;2023-03-15T12:48:34;97645.06;;;0.00;61.54
43480;BME280;29067;35.492;-97.520;2023-03-15T12:51:04;97651.64;;;0.51;60.35
43480;BME280;29067;35.492;-97.520;2023-03-15T12:53:41;97658.84;;;0.19;62.48
43480;BME280;29067;35.492;-97.520;2023-03-15T12:56:36;97663.09;;;1.08;60.60
43480;BME280;29067;35.492;-97.520;2023-03-15T12:59:16;97673.50;;;-0.11;61.73
43480;BME280;29067;35.492;-97.520;2023-03-15T13:01:45;97673.06;;;0.49;60.97
43480;BME280;29067;35.492;-97.520;2023-03-15T13:04:13;97672.85;;;1.56;58.39
43480;BME280;29067;35.492;-97.520;2023-03-15T13:06:55;97663.20;;;1.37;58.29
43480;BME280;29067;35.492;-97.520;2023-03-15T13:09:50;97653.46;;;1.42;58.42